Time;durP1;ratioP1;P1;durP2;ratioP2;P2;SDS_P1;SDS_P2;PMS_P1;PMS_P2;Temp;Humidity;BMP_temperature;BMP_pressure;BME280_temperature;BME280_humidity;BME280_pressure;Samples;Min_cycle;Max_cycle;Signal;HPM_P1;HPM_P2
2022/03/28 00:02:05;;;;;;;15.68;7.50;;;6.30;99.90;;;;;;5092259;28;20068;-64
2022/03/28 00:04:32;;;;;;;17.55;8.60;;;6.30;99.90;;;;;;5092509;28;20549;-64
2022/03/28 00:07:00;;;;;;;14.40;8.23;;;6.30;99.90;;;;;;5072924;28;20433;-64
2022/03/28 00:09:27;;;;;;;23.35;8.55;;;6.30;99.90;;;;;;5092491;28;20492;-64
2022/03/28 00:11:54;;;;;;;14.77;8.02;;;6.20;99.90;;;;;;5092202;28;20040;-64
2022/03/28 00:14:21;;;;;;;;;;;6.10;99.90;;;;;;5089004;28;20033;-63
2022/03/28 00:16:48;;;;;;;14.45;7.57;;;5.90;99.90;;;;;;5092239;28;19923;-64
2022/03/28 00:19:15;;;;;;;19.20;8.57;;;5.90;99.90;;;;;;5056600;28;20043;-64
2022/03/28 00:21:41;;;;;;;16.85;9.23;;;5.90;99.90;;;;;;5092041;28;20043;-64
2022/03/28 00:24:08;;;;;;;17.88;9.68;;;6.00;99.90;;;;;;5086188;28;20098;-64
2022/03/28 00:26:35;;;;;;;18.02;9.45;;;6.00;99.90;;;;;;5092305;28;20101;-64
2022/03/28 00:29:02;;;;;;;16.98;8.90;;;6.00;99.90;;;;;;5091920;28;20093;-64
2022/03/28 00:31:29;;;;;;;17.85;8.43;;;6.00;99.90;;;;;;5072316;28;20036;-64
2022/03/28 00:33:56;;;;;;;15.18;8.30;;;6.10;99.90;;;;;;5073688;28;20048;-64
2022/03/28 00:36:23;;;;;;;17.17;8.95;;;6.30;99.90;;;;;;5092218;28;20039;-64
2022/03/28 00:38:51;;;;;;;16.37;8.17;;;6.30;99.90;;;;;;5088328;28;20450;-64
2022/03/28 00:41:18;;;;;;;20.95;8.88;;;6.30;99.90;;;;;;5091295;28;20288;-64
2022/03/28 00:43:55;;;;;;;;;;;6.20;99.90;;;;;;5092285;28;20533;-64
2022/03/28 00:46:22;;;;;;;15.23;7.75;;;6.20;99.90;;;;;;5092082;28;19920;-64
2022/03/28 00:48:49;;;;;;;;;;;6.10;99.90;;;;;;5087239;28;20040;-64
2022/03/28 00:51:18;;;;;;;16.42;8.52;;;6.10;99.90;;;;;;5091428;28;19920;-64
2022/03/28 00:53:46;;;;;;;21.08;10.20;;;6.00;99.90;;;;;;5091763;28;20044;-64
2022/03/28 00:56:13;;;;;;;22.45;10.60;;;5.90;99.90;;;;;;5086700;28;20032;-63
2022/03/28 00:58:40;;;;;;;;;;;5.90;99.90;;;;;;5091830;28;20047;-63
2022/03/28 01:01:09;;;;;;;21.08;9.18;;;5.80;99.90;;;;;;5091390;28;19923;-63
2022/03/28 01:03:37;;;;;;;15.43;8.75;;;5.80;99.90;;;;;;5091664;28;20105;-64
2022/03/28 01:06:05;;;;;;;18.08;8.40;;;5.80;99.90;;;;;;5085132;28;20040;-63
2022/03/28 01:08:36;;;;;;;16.60;8.68;;;5.60;99.90;;;;;;5086423;28;20391;-63
2022/03/28 01:11:09;;;;;;;14.65;7.93;;;5.40;99.90;;;;;;5089351;28;20047;-63
2022/03/28 01:13:39;;;;;;;12.55;7.07;;;5.20;99.90;;;;;;5089909;28;20093;-63
2022/03/28 01:16:07;;;;;;;14.70;7.30;;;5.10;99.90;;;;;;5082904;28;20032;-63
2022/03/28 01:18:34;;;;;;;18.90;8.27;;;5.00;99.90;;;;;;5086971;28;20442;-62
2022/03/28 01:21:02;;;;;;;13.55;7.47;;;5.00;99.90;;;;;;5090866;28;20051;-64
2022/03/28 01:23:29;;;;;;;16.13;8.25;;;4.90;99.90;;;;;;5108797;22;20036;-61
2022/03/28 01:26:21;;;;;;;16.75;8.18;;;4.90;99.90;;;;;;5100796;28;20043;-61
2022/03/28 01:32:57;;;;;;;22.10;8.25;;;4.90;99.90;;;;;;5087906;28;20044;-62
2022/03/28 01:35:32;;;;;;;16.55;8.38;;;4.90;99.90;;;;;;5112233;27;20029;-62
2022/03/28 01:38:02;;;;;;;18.58;8.13;;;4.90;99.90;;;;;;5095517;28;20048;-61
2022/03/28 01:40:31;;;;;;;17.05;7.70;;;5.00;99.90;;;;;;5101800;28;20060;-61
2022/03/28 01:42:58;;;;;;;15.00;8.02;;;5.00;99.90;;;;;;5114574;28;20039;-61
2022/03/28 01:45:26;;;;;;;19.42;7.40;;;5.00;99.90;;;;;;5118603;27;20047;-62
2022/03/28 01:47:53;;;;;;;16.10;7.97;;;4.90;99.90;;;;;;5098181;28;20043;-62
2022/03/28 01:50:21;;;;;;;17.88;8.40;;;4.70;99.90;;;;;;5115220;27;20092;-62
2022/03/28 01:52:48;;;;;;;19.15;8.35;;;4.60;99.90;;;;;;5122336;27;20502;-61
2022/03/28 01:55:15;;;;;;;16.13;8.07;;;4.60;99.90;;;;;;5093644;28;20409;-62
2022/03/28 01:57:43;;;;;;;17.30;8.45;;;4.60;99.90;;;;;;5095010;28;20048;-62
2022/03/28 02:00:14;;;;;;;18.48;8.90;;;4.50;99.90;;;;;;5105162;28;20048;-62
2022/03/28 02:02:41;;;;;;;15.25;8.10;;;4.50;99.90;;;;;;5114936;27;20404;-62
2022/03/28 02:05:12;;;;;;;16.42;8.50;;;4.50;99.90;;;;;;5094670;28;20044;-62
2022/03/28 02:07:40;;;;;;;17.67;8.40;;;4.60;99.90;;;;;;5098438;28;20464;-62
2022/03/28 02:10:09;;;;;;;15.85;8.32;;;4.60;99.90;;;;;;5110819;27;20498;-62
2022/03/28 02:12:36;;;;;;;16.40;8.63;;;4.60;99.90;;;;;;5135390;27;20055;-62
2022/03/28 02:15:06;;;;;;;17.95;9.40;;;4.60;99.90;;;;;;5135760;27;20043;-62
2022/03/28 02:17:34;;;;;;;18.90;8.88;;;4.60;99.90;;;;;;5125122;27;20116;-62
2022/03/28 02:20:02;;;;;;;17.35;8.35;;;5.00;99.90;;;;;;5095946;27;20089;-62
2022/03/28 02:22:29;;;;;;;17.63;8.43;;;4.50;99.90;;;;;;5094243;28;20044;-62
2022/03/28 02:24:56;;;;;;;17.42;8.68;;;4.40;99.90;;;;;;5107824;27;20044;-62
2022/03/28 02:27:22;;;;;;;18.77;8.63;;;4.30;99.90;;;;;;5106233;27;20496;-62
2022/03/28 02:29:49;;;;;;;16.85;8.57;;;4.20;99.90;;;;;;5094460;28;20308;-62
2022/03/28 02:32:16;;;;;;;19.23;8.43;;;4.20;99.90;;;;;;5099980;28;20035;-62
2022/03/28 02:34:43;;;;;;;16.75;7.85;;;4.20;99.90;;;;;;5114218;27;20044;-62
2022/03/28 02:37:10;;;;;;;15.70;8.00;;;4.20;99.90;;;;;;5094435;28;20048;-62
2022/03/28 02:39:37;;;;;;;17.02;8.90;;;4.30;99.90;;;;;;5095036;28;20051;-62
2022/03/28 02:42:04;;;;;;;15.98;7.97;;;4.30;99.90;;;;;;5118566;27;20059;-62
2022/03/28 02:44:31;;;;;;;17.13;8.52;;;4.30;99.90;;;;;;5093860;28;20047;-62
2022/03/28 02:46:58;;;;;;;18.88;9.02;;;4.30;99.90;;;;;;5109677;27;20052;-62
2022/03/28 02:49:25;;;;;;;15.75;7.82;;;4.30;99.90;;;;;;5105404;27;20094;-62
2022/03/28 02:51:52;;;;;;;25.27;8.80;;;4.30;99.90;;;;;;5097464;28;20043;-62
2022/03/28 02:54:18;;;;;;;20.63;9.07;;;4.20;99.90;;;;;;5117267;27;20086;-62
2022/03/28 02:56:45;;;;;;;17.05;8.77;;;4.00;99.90;;;;;;5093811;28;20685;-62
2022/03/28 02:59:12;;;;;;;13.00;6.47;;;3.90;99.90;;;;;;5093875;28;20093;-62
2022/03/28 03:01:39;;;;;;;17.00;8.38;;;3.80;99.90;;;;;;5094000;28;20290;-62
2022/03/28 03:04:06;;;;;;;16.30;8.05;;;3.80;99.90;;;;;;5109162;27;20035;-62
2022/03/28 03:06:32;;;;;;;16.83;9.67;;;3.70;99.90;;;;;;5134730;27;20043;-62
2022/03/28 03:08:59;;;;;;;15.93;8.80;;;3.70;99.90;;;;;;5130266;27;20277;-62
2022/03/28 03:11:26;;;;;;;18.57;8.27;;;3.70;99.90;;;;;;5114344;27;20288;-62
2022/03/28 03:13:56;;;;;;;17.00;8.77;;;3.70;99.90;;;;;;5096915;27;20048;-62
2022/03/28 03:16:23;;;;;;;23.40;9.13;;;3.70;99.90;;;;;;5093710;28;20048;-62
2022/03/28 03:18:50;;;;;;;17.02;8.60;;;3.70;99.90;;;;;;5105085;27;20089;-61
2022/03/28 03:21:17;;;;;;;15.57;8.43;;;3.80;99.90;;;;;;5106551;27;20040;-62
2022/03/28 03:23:44;;;;;;;20.05;9.45;;;3.80;99.90;;;;;;5093302;28;20048;-62
2022/03/28 03:26:10;;;;;;;24.15;9.25;;;3.80;99.90;;;;;;5098046;28;20031;-62
2022/03/28 03:28:37;;;;;;;19.10;9.27;;;3.90;99.90;;;;;;5114081;27;20040;-62
2022/03/28 03:31:04;;;;;;;20.65;8.95;;;3.90;99.90;;;;;;5097262;28;20082;-62
2022/03/28 03:33:30;;;;;;;20.03;9.20;;;3.90;99.90;;;;;;5093482;28;20040;-62
2022/03/28 03:36:00;;;;;;;21.47;9.80;;;3.90;99.90;;;;;;5106862;27;20842;-62
2022/03/28 03:38:27;;;;;;;18.48;9.50;;;3.90;99.90;;;;;;5106883;27;20294;-62
2022/03/28 03:40:54;;;;;;;19.35;10.07;;;3.90;99.90;;;;;;5099307;28;20511;-62
2022/03/28 03:43:21;;;;;;;21.20;9.98;;;3.90;99.90;;;;;;5111421;28;20073;-62
2022/03/28 03:45:48;;;;;;;20.67;9.73;;;3.80;99.90;;;;;;5111436;27;20039;-62
2022/03/28 03:48:15;;;;;;;24.92;9.40;;;3.70;99.90;;;;;;5133881;27;20579;-62
2022/03/28 03:50:42;;;;;;;23.35;10.70;;;3.50;99.90;;;;;;5133847;27;20107;-62
2022/03/28 03:53:09;;;;;;;23.53;10.07;;;3.40;99.90;;;;;;5130526;27;20559;-62
2022/03/28 03:55:36;;;;;;;17.70;8.70;;;3.30;99.90;;;;;;5115472;27;20345;-62
2022/03/28 03:58:03;;;;;;;23.60;9.98;;;3.30;99.90;;;;;;5093359;28;20065;-62
2022/03/28 04:00:30;;;;;;;23.63;9.93;;;3.30;99.90;;;;;;5092502;28;20040;-62
2022/03/28 04:02:57;;;;;;;19.77;10.45;;;3.40;99.90;;;;;;5118398;27;20039;-62
2022/03/28 04:05:24;;;;;;;19.25;9.88;;;3.50;99.90;;;;;;5092484;28;20040;-62
2022/03/28 04:07:51;;;;;;;21.52;10.18;;;3.50;99.90;;;;;;5092394;28;20495;-62
2022/03/28 04:10:17;;;;;;;19.80;8.88;;;3.50;99.90;;;;;;5081795;28;20089;-62
2022/03/28 04:12:44;;;;;;;21.87;9.33;;;3.40;99.90;;;;;;5118592;27;20035;-62
2022/03/28 04:15:11;;;;;;;19.95;9.95;;;3.30;99.90;;;;;;5131701;27;20043;-62
2022/03/28 04:17:43;;;;;;;20.23;10.02;;;3.30;99.90;;;;;;5112601;28;20052;-62
2022/03/28 04:20:12;;;;;;;22.40;9.00;;;3.20;99.90;;;;;;5112447;28;20392;-62
2022/03/28 04:22:41;;;;;;;26.73;12.00;;;3.20;99.90;;;;;;5112223;27;20044;-62
2022/03/28 04:25:11;;;;;;;25.17;10.25;;;3.10;99.90;;;;;;5091129;28;20066;-62
2022/03/28 04:27:38;;;;;;;23.13;9.95;;;3.20;99.90;;;;;;5110218;28;20051;-62
2022/03/28 04:30:10;;;;;;;23.98;10.02;;;3.30;99.90;;;;;;5112369;28;20097;-62
2022/03/28 04:32:36;;;;;;;32.63;10.57;;;3.30;99.90;;;;;;5112062;28;20036;-62
2022/03/28 04:35:06;;;;;;;20.73;7.13;;;3.30;99.90;;;;;;5112197;28;20043;-62
2022/03/28 04:37:34;;;;;;;32.65;10.50;;;3.10;99.90;;;;;;5109261;28;20036;-62
2022/03/28 04:40:02;;;;;;;15.55;8.32;;;2.90;99.90;;;;;;5111723;28;20046;-62
2022/03/28 04:42:29;;;;;;;21.38;8.80;;;2.70;99.90;;;;;;5111254;28;20047;-62
2022/03/28 04:44:56;;;;;;;20.50;9.30;;;2.60;99.90;;;;;;5109047;28;20032;-62
2022/03/28 04:47:23;;;;;;;18.30;9.25;;;2.60;99.90;;;;;;5108038;28;20039;-62
2022/03/28 04:49:50;;;;;;;15.23;7.05;;;2.70;99.90;;;;;;5111505;28;20507;-62
2022/03/28 04:52:16;;;;;;;16.63;6.70;;;2.80;99.90;;;;;;5108859;28;20461;-62
2022/03/28 04:54:43;;;;;;;20.85;9.05;;;2.70;99.90;;;;;;5107374;28;20043;-62
2022/03/28 04:57:10;;;;;;;16.20;8.80;;;2.70;99.90;;;;;;5107319;27;20410;-62
2022/03/28 04:59:37;;;;;;;19.02;9.57;;;2.70;99.90;;;;;;5091614;28;20063;-62
2022/03/28 05:02:04;;;;;;;19.63;8.93;;;2.70;99.90;;;;;;5091659;28;20036;-62
2022/03/28 05:04:31;;;;;;;;;;;2.80;99.90;;;;;;5114572;27;20106;-62
2022/03/28 05:06:58;;;;;;;19.85;8.05;;;2.80;99.90;;;;;;5093162;28;20371;-62
2022/03/28 05:09:25;;;;;;;22.83;9.43;;;2.90;99.90;;;;;;5111295;28;20040;-61
2022/03/28 05:11:52;;;;;;;20.08;9.60;;;2.90;99.90;;;;;;5112278;28;20043;-62
2022/03/28 05:14:18;;;;;;;22.90;10.03;;;2.90;99.90;;;;;;5104996;28;20047;-62
2022/03/28 05:16:45;;;;;;;20.55;9.65;;;2.90;99.90;;;;;;5091869;28;20620;-62
2022/03/28 05:19:12;;;;;;;18.60;8.38;;;3.00;99.90;;;;;;5096582;28;20046;-62
2022/03/28 05:21:39;;;;;;;29.38;11.20;;;3.00;99.90;;;;;;5111245;28;20050;-62
2022/03/28 05:24:05;;;;;;;23.77;12.20;;;3.00;99.90;;;;;;5091182;28;20036;-62
2022/03/28 05:26:32;;;;;;;23.05;11.88;;;3.10;99.90;;;;;;5091421;28;20504;-62
2022/03/28 05:29:00;;;;;;;28.13;12.77;;;3.20;99.90;;;;;;5105572;28;20120;-62
2022/03/28 05:31:27;;;;;;;22.35;11.20;;;3.20;99.90;;;;;;5101203;28;20044;-62
2022/03/28 05:33:54;;;;;;;27.88;14.35;;;3.20;99.90;;;;;;5091305;28;20496;-62
2022/03/28 05:36:21;;;;;;;25.25;12.57;;;3.30;99.90;;;;;;5110397;28;20047;-62
2022/03/28 05:38:48;;;;;;;39.95;15.27;;;3.30;99.90;;;;;;5117005;28;20039;-62
2022/03/28 05:41:14;;;;;;;26.65;11.00;;;3.30;99.90;;;;;;5090075;28;20048;-62
2022/03/28 05:43:41;;;;;;;26.00;11.85;;;3.40;99.90;;;;;;5091098;28;20040;-62
2022/03/28 05:46:08;;;;;;;28.38;10.52;;;3.50;99.90;;;;;;5101218;28;20044;-62
2022/03/28 05:48:35;;;;;;;;;;;3.50;99.90;;;;;;5112930;28;20048;-62
2022/03/28 05:51:02;;;;;;;28.60;12.07;;;3.60;99.90;;;;;;5090763;28;19920;-62
2022/03/28 05:53:29;;;;;;;24.30;12.02;;;3.60;99.90;;;;;;5091890;28;20040;-62
2022/03/28 05:55:56;;;;;;;25.80;12.02;;;3.70;99.90;;;;;;5118059;28;20479;-62
2022/03/28 05:58:22;;;;;;;25.27;11.82;;;3.70;99.90;;;;;;5090994;28;20052;-62
2022/03/28 06:00:49;;;;;;;25.98;12.32;;;3.70;99.90;;;;;;5090960;28;20044;-62
2022/03/28 06:03:16;;;;;;;16.42;9.15;;;3.80;99.90;;;;;;5113532;28;20035;-62
2022/03/28 06:06:03;;;;;;;25.13;11.68;;;3.80;99.90;;;;;;5093373;28;20452;-62
2022/03/28 06:08:31;;;;;;;21.85;11.88;;;3.80;99.90;;;;;;5111093;28;20043;-62
2022/03/28 06:10:58;;;;;;;20.05;10.38;;;3.90;99.90;;;;;;5110588;28;20047;-62
2022/03/28 06:13:25;;;;;;;24.63;10.52;;;3.60;99.90;;;;;;5113428;28;20036;-62
2022/03/28 06:15:52;;;;;;;24.08;10.75;;;3.40;99.90;;;;;;5090941;28;20048;-62
2022/03/28 06:18:19;;;;;;;19.15;10.50;;;3.40;99.90;;;;;;5092919;28;20050;-62
2022/03/28 06:20:46;;;;;;;23.48;11.15;;;3.30;99.90;;;;;;5122226;27;20043;-62
2022/03/28 06:23:13;;;;;;;24.67;11.63;;;3.30;99.90;;;;;;5094188;28;20054;-62
2022/03/28 06:25:40;;;;;;;27.52;11.35;;;3.30;99.90;;;;;;5094198;28;20098;-62
2022/03/28 06:28:07;;;;;;;27.60;11.32;;;3.20;99.90;;;;;;5117684;27;20085;-62
2022/03/28 06:30:34;;;;;;;26.73;11.10;;;3.30;99.90;;;;;;5102840;27;20040;-62
2022/03/28 06:33:01;;;;;;;25.77;11.77;;;3.40;99.90;;;;;;5094329;28;20418;-62
2022/03/28 06:35:28;;;;;;;34.75;12.07;;;3.60;99.90;;;;;;5099950;28;20786;-62
2022/03/28 06:37:55;;;;;;;31.67;12.95;;;3.80;99.90;;;;;;5120776;27;20100;-62
2022/03/28 06:40:23;;;;;;;25.67;11.85;;;4.00;99.90;;;;;;5093956;28;20058;-62
2022/03/28 06:42:51;;;;;;;25.95;11.40;;;4.20;99.90;;;;;;5097248;28;20115;-62
2022/03/28 06:45:17;;;;;;;33.80;12.88;;;4.40;99.90;;;;;;5117607;27;20051;-63
2022/03/28 06:47:51;;;;;;;36.08;15.13;;;4.50;99.90;;;;;;5094208;28;20036;-63
2022/03/28 06:50:20;;;;;;;34.78;12.13;;;4.50;99.90;;;;;;5093749;28;20131;-62
2022/03/28 06:52:47;;;;;;;27.48;12.75;;;4.70;99.90;;;;;;5105490;27;20105;-62
2022/03/28 06:55:14;;;;;;;25.65;11.73;;;4.90;99.90;;;;;;5108199;27;20051;-62
2022/03/28 06:57:41;;;;;;;27.25;12.23;;;5.20;99.90;;;;;;5093680;28;20508;-62
2022/03/28 07:00:10;;;;;;;29.50;12.43;;;5.40;99.90;;;;;;5093877;28;20051;-62
2022/03/28 07:02:37;;;;;;;29.42;12.38;;;5.60;99.90;;;;;;5120604;27;20097;-62
2022/03/28 07:05:08;;;;;;;23.92;11.13;;;5.80;99.90;;;;;;5093661;28;20426;-62
2022/03/28 07:07:39;;;;;;;18.63;10.27;;;6.00;99.90;;;;;;5093663;28;20575;-62
2022/03/28 07:10:06;;;;;;;24.65;10.75;;;6.20;99.90;;;;;;5099582;28;20093;-62
2022/03/28 07:12:33;;;;;;;25.35;11.45;;;6.30;99.90;;;;;;5114330;27;20046;-62
2022/03/28 07:15:00;;;;;;;29.10;13.83;;;6.50;99.90;;;;;;5093447;28;20044;-62
2022/03/28 07:17:26;;;;;;;35.83;11.73;;;6.70;99.90;;;;;;5093489;28;20294;-62
2022/03/28 07:19:53;;;;;;;25.17;11.03;;;6.70;99.90;;;;;;5100391;28;20304;-62
2022/03/28 07:22:20;;;;;;;24.30;11.47;;;6.90;99.90;;;;;;5116295;27;20278;-62
2022/03/28 07:24:47;;;;;;;27.17;12.23;;;7.00;99.90;;;;;;5113739;22;20044;-62
2022/03/28 07:27:14;;;;;;;30.38;12.80;;;7.10;99.90;;;;;;5109061;28;20035;-62
2022/03/28 07:29:43;;;;;;;;;;;7.20;99.90;;;;;;5111140;28;20075;-62
2022/03/28 07:32:10;;;;;;;24.45;10.98;;;7.30;99.90;;;;;;5092507;28;19926;-62
2022/03/28 07:34:38;;;;;;;28.20;11.25;;;7.40;99.90;;;;;;5093222;28;20488;-64
2022/03/28 07:37:09;;;;;;;24.83;11.73;;;7.50;99.90;;;;;;5096980;28;20093;-64
2022/03/28 07:39:39;;;;;;;27.27;11.23;;;7.60;99.90;;;;;;5113688;27;20123;-64
2022/03/28 07:42:10;;;;;;;24.40;11.27;;;7.70;99.90;;;;;;5092730;28;20040;-64
2022/03/28 07:44:37;;;;;;;18.85;11.23;;;7.90;99.90;;;;;;5092712;28;20058;-63
2022/03/28 07:47:05;;;;;;;19.20;10.85;;;8.00;99.90;;;;;;5097276;28;20317;-63
2022/03/28 07:49:34;;;;;;;18.45;10.48;;;8.10;99.90;;;;;;5114262;27;20046;-63
2022/03/28 07:52:03;;;;;;;19.85;10.65;;;8.20;99.90;;;;;;5092409;28;20044;-63
2022/03/28 07:54:29;;;;;;;21.17;11.13;;;8.30;99.90;;;;;;5094250;28;20090;-63
2022/03/28 07:56:56;;;;;;;25.15;12.13;;;8.40;99.90;;;;;;5119162;27;20043;-63
2022/03/28 07:59:23;;;;;;;23.83;9.87;;;8.60;99.90;;;;;;5092371;28;20036;-63
2022/03/28 08:01:51;;;;;;;22.65;10.82;;;8.60;99.90;;;;;;5092131;28;20281;-63
2022/03/28 08:04:23;;;;;;;22.02;10.85;;;8.70;99.90;;;;;;5113052;27;20031;-63
2022/03/28 08:06:50;;;;;;;23.35;10.43;;;8.90;99.90;;;;;;5096910;28;20035;-63
2022/03/28 08:09:17;;;;;;;17.48;10.82;;;9.10;99.90;;;;;;5112884;28;20043;-63
2022/03/28 08:11:44;;;;;;;21.70;10.27;;;9.20;99.90;;;;;;5104922;28;20488;-63
2022/03/28 08:14:11;;;;;;;22.40;9.63;;;9.30;99.90;;;;;;5094407;28;20035;-63
2022/03/28 08:16:38;;;;;;;22.13;10.77;;;9.60;99.90;;;;;;5112832;28;20044;-63
2022/03/28 08:19:05;;;;;;;17.98;10.55;;;9.90;99.90;;;;;;5111984;28;20039;-63
2022/03/28 08:21:32;;;;;;;20.52;10.52;;;9.90;99.90;;;;;;5113476;27;20040;-63
2022/03/28 08:23:59;;;;;;;18.55;10.45;;;9.90;99.90;;;;;;5092076;28;20036;-61
2022/03/28 08:26:26;;;;;;;19.80;10.38;;;10.00;99.90;;;;;;5091907;28;20038;-63
2022/03/28 08:28:52;;;;;;;26.45;10.73;;;10.10;99.90;;;;;;5104922;27;20039;-63
2022/03/28 08:31:19;;;;;;;19.88;10.07;;;10.30;99.90;;;;;;5104615;27;20466;-63
2022/03/28 08:33:46;;;;;;;22.13;10.13;;;10.50;99.90;;;;;;5092030;28;20209;-63
2022/03/28 08:36:13;;;;;;;16.02;9.82;;;10.60;99.90;;;;;;5094357;28;20043;-63
2022/03/28 08:38:40;;;;;;;20.98;9.73;;;10.70;99.90;;;;;;5120429;27;20050;-63
2022/03/28 08:41:12;;;;;;;17.83;9.90;;;10.70;99.90;;;;;;5090711;28;20047;-63
2022/03/28 08:43:40;;;;;;;16.67;9.43;;;10.90;99.90;;;;;;5091941;28;20051;-63
2022/03/28 08:46:09;;;;;;;21.88;10.18;;;11.00;99.90;;;;;;5094577;28;20051;-63
2022/03/28 08:48:39;;;;;;;16.88;9.65;;;11.20;99.90;;;;;;5093693;28;20063;-63
2022/03/28 08:51:07;;;;;;;18.70;10.13;;;11.30;99.00;;;;;;5111681;28;20043;-63
2022/03/28 08:53:34;;;;;;;17.42;9.55;;;11.40;99.60;;;;;;5111795;28;20040;-63
2022/03/28 08:56:01;;;;;;;21.77;11.00;;;11.80;99.40;;;;;;5105298;28;20101;-63
2022/03/28 08:58:48;;;;;;;18.88;9.95;;;11.70;97.80;;;;;;5110861;27;20496;-63
2022/03/28 09:01:15;;;;;;;17.92;9.80;;;11.90;97.50;;;;;;5091358;28;20089;-63
2022/03/28 09:03:47;;;;;;;18.33;9.50;;;12.00;96.70;;;;;;5091161;28;20048;-63
2022/03/28 09:06:34;;;;;;;18.35;10.27;;;12.20;96.80;;;;;;5093267;28;20424;-63
2022/03/28 09:09:24;;;;;;;17.23;9.68;;;12.40;96.90;;;;;;5109044;27;20036;-63
2022/03/28 09:11:51;;;;;;;18.13;10.23;;;12.50;94.40;;;;;;5091306;28;20646;-63
2022/03/28 09:14:27;;;;;;;21.55;11.18;;;12.60;94.30;;;;;;5113393;28;20059;-63
2022/03/28 09:17:01;;;;;;;16.67;10.10;;;12.80;95.80;;;;;;5094277;28;20043;-63
2022/03/28 09:19:42;;;;;;;20.10;10.10;;;12.90;95.50;;;;;;5091541;28;20044;-63
2022/03/28 09:22:11;;;;;;;23.48;10.68;;;13.10;95.20;;;;;;5108074;28;20047;-63
2022/03/28 09:24:37;;;;;;;20.95;10.05;;;13.30;95.10;;;;;;5098729;28;20466;-63
2022/03/28 09:27:16;;;;;;;16.10;9.95;;;13.50;94.10;;;;;;5091256;28;20443;-63
2022/03/28 09:29:54;;;;;;;18.25;9.93;;;13.60;92.60;;;;;;5092041;28;20040;-63
2022/03/28 09:32:22;;;;;;;22.58;10.15;;;13.60;92.60;;;;;;5116970;28;20424;-63
2022/03/28 09:35:09;;;;;;;19.33;9.98;;;13.60;92.20;;;;;;5095751;28;20044;-63
2022/03/28 09:37:51;;;;;;;22.13;10.70;;;13.70;90.70;;;;;;5091312;28;20044;-63
2022/03/28 09:40:25;;;;;;;21.23;10.52;;;13.70;91.50;;;;;;5111630;28;20483;-63
2022/03/28 09:42:53;;;;;;;20.88;11.13;;;13.90;91.10;;;;;;5094184;28;20044;-63
2022/03/28 09:45:22;;;;;;;21.48;10.05;;;13.90;90.10;;;;;;5091144;28;20051;-63
2022/03/28 09:48:15;;;;;;;15.93;9.57;;;13.80;88.70;;;;;;5097797;28;20108;-63
2022/03/28 09:51:03;;;;;;;15.77;10.15;;;14.00;88.50;;;;;;5106976;28;20056;-63
2022/03/28 09:53:32;;;;;;;19.50;10.13;;;14.10;88.10;;;;;;5094619;28;20040;-63
2022/03/28 09:56:07;;;;;;;19.92;9.98;;;14.30;85.40;;;;;;5095153;28;20601;-63
2022/03/28 09:58:59;;;;;;;17.35;10.00;;;14.40;85.40;;;;;;5118587;27;20035;-63
2022/03/28 10:01:43;;;;;;;22.48;10.85;;;14.60;85.50;;;;;;5094524;28;20054;-63
2022/03/28 10:04:20;;;;;;;16.70;10.10;;;14.70;81.80;;;;;;5097769;28;20390;-63
2022/03/28 10:06:47;;;;;;;;;;;14.80;84.40;;;;;;5097321;28;20094;-63
2022/03/28 10:09:14;;;;;;;18.45;10.23;;;14.90;83.50;;;;;;5115268;28;19958;-63
2022/03/28 10:11:43;;;;;;;21.27;11.15;;;15.00;83.40;;;;;;5114738;28;20046;-63
2022/03/28 10:14:10;;;;;;;18.67;10.77;;;15.00;84.50;;;;;;5114313;27;20032;-63
2022/03/28 10:16:38;;;;;;;;;;;15.10;81.30;;;;;;5103128;27;20447;-63
2022/03/28 10:19:05;;;;;;;19.33;11.18;;;15.20;81.60;;;;;;5094677;28;20018;-63
2022/03/28 10:21:34;;;;;;;18.58;11.40;;;15.30;80.60;;;;;;5094847;28;20040;-63
2022/03/28 10:24:10;;;;;;;19.67;10.18;;;15.10;78.90;;;;;;5095990;28;20040;-63
2022/03/28 10:26:40;;;;;;;19.85;10.98;;;15.30;80.10;;;;;;5114833;28;20067;-63
2022/03/28 10:29:09;;;;;;;20.35;10.23;;;15.20;78.50;;;;;;5096818;28;20044;-63
2022/03/28 10:31:56;;;;;;;18.88;11.55;;;15.20;78.70;;;;;;5113560;28;20040;-63
2022/03/28 10:34:48;;;;;;;19.83;10.57;;;15.40;78.50;;;;;;5109683;28;20419;-63
2022/03/28 10:37:40;;;;;;;20.85;10.52;;;15.50;79.50;;;;;;5114399;28;20399;-63
2022/03/28 10:40:24;;;;;;;20.73;10.75;;;15.70;79.10;;;;;;5117994;27;20070;-63
2022/03/28 10:43:08;;;;;;;21.00;9.95;;;15.80;77.30;;;;;;5097734;27;20044;-63
2022/03/28 10:45:50;;;;;;;15.88;10.07;;;15.90;77.00;;;;;;5094200;28;20055;-63
2022/03/28 10:48:36;;;;;;;18.17;11.23;;;16.00;75.30;;;;;;5099285;28;20043;-63
2022/03/28 10:51:18;;;;;;;16.85;10.15;;;16.00;73.60;;;;;;5119119;27;20090;-63
2022/03/28 10:53:53;;;;;;;20.05;10.00;;;16.00;73.50;;;;;;5093966;28;20059;-63
2022/03/28 10:56:25;;;;;;;20.45;10.65;;;16.00;73.00;;;;;;5101784;28;20044;-63
2022/03/28 10:58:53;;;;;;;16.50;9.93;;;16.00;72.20;;;;;;5112529;27;20404;-63
2022/03/28 11:01:23;;;;;;;19.88;11.40;;;16.00;72.30;;;;;;5093417;28;20040;-63
2022/03/28 11:04:00;;;;;;;17.83;10.30;;;16.20;72.00;;;;;;5093011;28;20086;-63
2022/03/28 11:06:49;;;;;;;18.57;10.73;;;16.30;74.80;;;;;;5106134;28;20044;-63
2022/03/28 11:09:41;;;;;;;17.70;10.38;;;16.50;71.20;;;;;;5107224;28;20051;-63
2022/03/28 11:12:20;;;;;;;17.85;11.32;;;16.50;70.30;;;;;;5113495;28;20509;-63
2022/03/28 11:14:50;;;;;;;32.17;11.43;;;16.60;69.20;;;;;;5113345;28;20385;-63
2022/03/28 11:17:36;;;;;;;17.65;11.00;;;16.70;70.40;;;;;;5112085;27;20039;-63
2022/03/28 11:20:12;;;;;;;20.60;11.27;;;16.70;69.90;;;;;;5093853;27;20411;-63
2022/03/28 11:22:57;;;;;;;19.92;11.02;;;16.80;68.70;;;;;;5093341;28;20048;-63
2022/03/28 11:25:38;;;;;;;18.77;11.80;;;17.00;68.50;;;;;;5114738;27;20031;-63
2022/03/28 11:28:17;;;;;;;27.30;12.00;;;16.90;67.60;;;;;;5093343;28;20527;-63
2022/03/28 11:30:44;;;;;;;23.40;11.70;;;16.90;68.30;;;;;;5092882;28;20044;-63
2022/03/28 11:33:12;;;;;;;21.48;11.38;;;17.00;70.00;;;;;;5095873;28;20042;-63
2022/03/28 11:35:49;;;;;;;20.58;12.27;;;17.10;66.10;;;;;;5121772;27;20437;-63
2022/03/28 11:38:19;;;;;;;17.05;11.30;;;17.10;67.20;;;;;;5093184;28;20044;-63
2022/03/28 11:40:46;;;;;;;20.33;11.75;;;17.20;67.90;;;;;;5093592;28;20393;-63
2022/03/28 11:43:12;;;;;;;19.73;11.90;;;17.40;67.10;;;;;;5110308;27;20498;-63
2022/03/28 11:45:49;;;;;;;18.10;11.05;;;17.50;67.00;;;;;;5100229;27;20051;-63
2022/03/28 11:48:18;;;;;;;20.73;11.13;;;17.70;64.40;;;;;;5093032;28;20051;-63
2022/03/28 11:50:45;;;;;;;19.38;11.25;;;17.80;64.20;;;;;;5093461;28;20507;-63
2022/03/28 11:53:13;;;;;;;;;;;17.90;61.80;;;;;;5117290;27;20036;-63
2022/03/28 11:55:50;;;;;;;20.05;10.30;;;18.00;59.70;;;;;;5092812;28;19923;-63
2022/03/28 11:58:26;;;;;;;21.42;11.32;;;18.10;59.50;;;;;;5092846;28;20495;-63
2022/03/28 12:00:53;;;;;;;21.25;10.65;;;18.20;61.50;;;;;;5092211;28;20059;-63
2022/03/28 12:03:20;;;;;;;19.38;11.07;;;18.40;60.70;;;;;;5115788;27;20123;-63
2022/03/28 12:05:47;;;;;;;16.80;11.05;;;18.30;60.30;;;;;;5092328;28;20074;-63
2022/03/28 12:08:18;;;;;;;22.27;11.15;;;18.40;60.40;;;;;;5092796;28;20047;-63
2022/03/28 12:10:51;;;;;;;20.65;11.13;;;18.40;61.00;;;;;;5117553;27;20039;-63
2022/03/28 12:13:22;;;;;;;18.30;10.77;;;18.50;61.40;;;;;;5092470;28;20044;-63
2022/03/28 12:15:51;;;;;;;16.63;10.75;;;18.50;60.00;;;;;;5091515;28;20044;-63
2022/03/28 12:18:22;;;;;;;23.50;11.40;;;18.60;59.70;;;;;;5111678;27;20119;-63
2022/03/28 12:20:51;;;;;;;22.92;10.90;;;18.70;60.30;;;;;;5097014;27;20040;-63
2022/03/28 12:23:22;;;;;;;23.00;11.38;;;18.80;60.40;;;;;;5092343;28;20047;-63
2022/03/28 12:25:51;;;;;;;23.38;11.45;;;18.80;60.50;;;;;;5103472;27;20051;-63
2022/03/28 12:28:24;;;;;;;18.02;10.95;;;18.90;60.00;;;;;;5105319;27;20059;-63
2022/03/28 12:30:55;;;;;;;23.83;10.98;;;18.90;60.00;;;;;;5090497;28;20055;-63
2022/03/28 12:33:28;;;;;;;20.30;11.35;;;19.00;60.70;;;;;;5099959;28;20487;-63
2022/03/28 12:35:58;;;;;;;19.50;10.85;;;19.10;60.80;;;;;;5110165;27;20040;-63
2022/03/28 12:38:27;;;;;;;19.73;11.18;;;19.20;62.40;;;;;;5091953;28;20089;-63
2022/03/28 12:40:56;;;;;;;22.42;11.25;;;19.30;60.00;;;;;;5091614;28;20078;-63
2022/03/28 12:43:27;;;;;;;17.27;10.90;;;19.30;59.90;;;;;;5115518;27;20050;-63
2022/03/28 12:45:58;;;;;;;24.45;10.60;;;19.40;60.30;;;;;;5094606;27;20118;-63
2022/03/28 12:48:44;;;;;;;16.40;10.73;;;19.40;60.00;;;;;;5091957;28;20047;-63
2022/03/28 12:51:12;;;;;;;19.35;10.43;;;19.40;60.20;;;;;;5096734;28;20035;-63
2022/03/28 12:53:40;;;;;;;21.10;11.15;;;19.40;61.20;;;;;;5112219;27;20044;-63
2022/03/28 12:56:18;;;;;;;19.80;10.20;;;19.50;61.60;;;;;;5091598;28;20044;-63
2022/03/28 12:58:54;;;;;;;19.17;11.18;;;19.50;60.20;;;;;;5091716;28;20043;-63